createdAt,value
2022-12-11T00:03:48.369Z,100850.19
2022-12-11T00:08:52.948Z,100840.78
2022-12-11T00:13:57.116Z,100839.31
2022-12-11T00:18:59.905Z,100839.09
2022-12-11T00:24:02.655Z,100836.06
2022-12-11T00:29:08.219Z,100836.81
2022-12-11T00:34:12.039Z,100840.97
2022-12-11T00:39:14.839Z,100840.59
2022-12-11T00:44:18.961Z,100841.50
2022-12-11T00:49:21.803Z,100837.72
2022-12-11T00:54:24.622Z,100839.72
2022-12-11T00:59:29.156Z,100839.16
2022-12-11T01:04:31.975Z,100839.13
2022-12-11T01:09:52.028Z,100834.22
2022-12-11T01:14:56.095Z,100833.63
2022-12-11T01:19:58.831Z,100838.91
2022-12-11T01:25:01.594Z,100837.63
2022-12-11T01:30:07.429Z,100842.91
2022-12-11T01:35:12.350Z,100837.47
2022-12-11T01:40:16.631Z,100848.88
2022-12-11T01:45:40.008Z,100849.47
2022-12-11T01:50:48.057Z,100848.00
2022-12-11T01:55:54.743Z,100847.06
2022-12-11T02:01:00.098Z,100837.47
2022-12-11T02:06:03.444Z,100841.66
2022-12-11T02:11:12.555Z,100845.47
2022-12-11T02:16:25.378Z,100845.09
2022-12-11T02:21:36.089Z,100840.91
2022-12-11T02:26:58.476Z,100843.28
2022-12-11T02:32:08.904Z,100837.88
2022-12-11T02:37:17.471Z,100842.56
2022-12-11T02:42:21.595Z,100839.69
2022-12-11T02:47:29.271Z,100832.06
2022-12-11T02:52:33.601Z,100830.25
2022-12-11T02:57:41.148Z,100825.91
2022-12-11T03:02:46.556Z,100829.31
2022-12-11T03:07:49.610Z,100829.91
2022-12-11T03:12:56.481Z,100824.41
2022-12-11T03:18:07.590Z,100829.28
2022-12-11T03:23:20.118Z,100830.03
2022-12-11T03:28:30.334Z,100832.41
2022-12-11T03:33:38.691Z,100823.31
2022-12-11T03:38:43.278Z,100829.34
2022-12-11T03:43:46.931Z,100825.91
2022-12-11T03:48:52.852Z,100824.22
2022-12-11T03:53:56.996Z,100831.31
2022-12-11T03:58:59.952Z,100824.97
2022-12-11T04:04:04.610Z,100822.44
2022-12-11T04:09:10.343Z,100823.19
2022-12-11T04:14:33.400Z,100820.00
2022-12-11T04:19:55.263Z,100815.63
2022-12-11T04:24:58.048Z,100816.38
2022-12-11T04:30:01.876Z,100808.91
2022-12-11T04:35:11.155Z,100807.31
2022-12-11T04:40:19.783Z,100810.19
2022-12-11T04:45:22.631Z,100814.69
2022-12-11T04:50:27.067Z,100815.28
2022-12-11T04:55:32.784Z,100811.94
2022-12-11T05:00:35.638Z,100802.13
2022-12-11T05:05:39.975Z,100802.84
2022-12-11T05:10:48.540Z,100799.09
2022-12-11T05:15:52.858Z,100808.31
2022-12-11T05:21:02.239Z,100813.03
2022-12-11T05:26:08.179Z,100808.28
2022-12-11T05:31:17.485Z,100811.97
2022-12-11T05:36:24.870Z,100816.31
2022-12-11T05:41:29.671Z,100810.72
2022-12-11T05:46:32.623Z,100814.81
2022-12-11T05:51:36.789Z,100817.91
2022-12-11T05:56:39.602Z,100803.78
2022-12-11T06:01:46.882Z,100806.53
2022-12-11T06:06:51.351Z,100813.56
2022-12-11T06:11:54.138Z,100816.66
2022-12-11T06:16:56.912Z,100810.00
2022-12-11T06:22:01.020Z,100803.34
2022-12-11T06:27:03.817Z,100816.94
2022-12-11T06:32:06.940Z,100827.81
2022-12-11T06:37:11.772Z,100816.59
2022-12-11T06:42:41.523Z,100814.75
2022-12-11T06:47:44.393Z,100820.53
2022-12-11T06:52:48.705Z,100810.94
2022-12-11T06:57:51.530Z,100813.16
2022-12-11T07:02:54.574Z,100819.66
2022-12-11T07:07:59.155Z,100827.81
2022-12-11T07:13:02.230Z,100828.03
2022-12-11T07:18:08.122Z,100835.06
2022-12-11T07:23:12.545Z,100837.75
2022-12-11T07:28:16.896Z,100855.09
2022-12-11T07:33:19.888Z,100857.81
2022-12-11T07:38:24.857Z,100853.47
2022-12-11T07:43:27.626Z,100860.88
2022-12-11T07:48:34.025Z,100856.03
2022-12-11T07:53:39.820Z,100857.91
2022-12-11T07:58:42.727Z,100848.97
2022-12-11T08:03:46.451Z,100860.41
2022-12-11T08:08:50.650Z,100859.91
2022-12-11T08:13:53.828Z,100859.91
2022-12-11T08:18:57.576Z,100854.47
2022-12-11T08:24:11.159Z,100839.44
2022-12-11T08:29:14.156Z,100839.25
2022-12-11T08:34:17.940Z,100850.66
2022-12-11T08:39:22.517Z,100843.41
2022-12-11T08:44:27.083Z,100843.06
2022-12-11T08:49:34.181Z,100839.78
2022-12-11T08:54:40.231Z,100835.59
2022-12-11T08:59:43.093Z,100830.00
2022-12-11T09:04:45.882Z,100833.81
2022-12-11T09:09:50.077Z,100828.88
2022-12-11T09:14:53.127Z,100832.16
2022-12-11T09:19:55.990Z,100822.66
2022-12-11T09:25:00.210Z,100825.91
2022-12-11T09:30:03.005Z,100826.28
2022-12-11T09:35:06.724Z,100819.72
2022-12-11T09:40:13.306Z,100809.84
2022-12-11T09:45:17.745Z,100809.84
2022-12-11T09:50:24.076Z,100814.34
2022-12-11T09:55:38.276Z,100814.91
2022-12-11T10:00:46.911Z,100805.50
2022-12-11T10:06:01.152Z,100813.09
2022-12-11T10:11:23.906Z,100806.22
2022-12-11T10:16:36.806Z,100810.72
2022-12-11T10:21:42.424Z,100802.09
2022-12-11T10:26:47.759Z,100801.31
2022-12-11T10:31:54.874Z,100785.81
2022-12-11T10:37:00.545Z,100784.91
2022-12-11T10:42:17.434Z,100779.50
2022-12-11T10:47:20.207Z,100776.00
2022-12-11T10:52:25.170Z,100772.06
2022-12-11T10:57:32.128Z,100780.75
2022-12-11T11:02:37.583Z,100777.47
2022-12-11T11:07:40.652Z,100768.38
2022-12-11T11:12:47.658Z,100765.88
2022-12-11T11:17:55.800Z,100766.16
2022-12-11T11:23:02.800Z,100764.97
2022-12-11T11:28:08.812Z,100754.84
2022-12-11T11:33:15.649Z,100757.13
2022-12-11T11:38:24.242Z,100754.44
2022-12-11T11:43:35.352Z,100743.38
2022-12-11T11:48:46.893Z,100735.28
2022-12-11T11:53:51.710Z,100721.34
2022-12-11T11:59:08.440Z,100726.13
2022-12-11T12:04:12.875Z,100717.34
2022-12-11T12:09:29.056Z,100724.63
2022-12-11T12:14:54.518Z,100725.84
2022-12-11T12:20:05.212Z,100725.66
2022-12-11T12:25:28.151Z,100737.31
2022-12-11T12:30:45.696Z,100728.44
2022-12-11T12:36:18.634Z,100728.63
2022-12-11T12:41:45.777Z,100732.34
2022-12-11T12:47:04.792Z,100729.81
2022-12-11T12:52:13.161Z,100727.81
2022-12-11T12:57:18.415Z,100722.00
2022-12-11T13:02:23.882Z,100728.38
2022-12-11T13:07:30.706Z,100736.47
2022-12-11T13:12:47.847Z,100729.13
2022-12-11T13:17:53.055Z,100725.84
2022-12-11T13:23:10.219Z,100724.34
2022-12-11T13:28:24.911Z,100738.81
2022-12-11T13:33:31.133Z,100732.53
2022-12-11T13:38:37.400Z,100739.28
2022-12-11T13:43:42.892Z,100736.53
2022-12-11T13:48:49.876Z,100738.47
2022-12-11T13:54:04.926Z,100746.91
2022-12-11T13:59:22.141Z,100752.50
2022-12-11T14:04:39.143Z,100753.00
2022-12-11T14:09:45.418Z,100746.25
2022-12-11T14:14:52.867Z,100745.84
2022-12-11T14:20:02.217Z,100751.91
2022-12-11T14:25:21.685Z,100761.00
2022-12-11T14:30:27.251Z,100749.56
2022-12-11T14:35:38.875Z,100757.31
2022-12-11T14:40:48.022Z,100758.13
2022-12-11T14:45:55.777Z,100760.31
2022-12-11T14:51:06.112Z,100754.34
2022-12-11T14:56:16.973Z,100745.81
2022-12-11T15:01:25.031Z,100752.19
2022-12-11T15:06:30.728Z,100762.34
2022-12-11T15:11:33.867Z,100758.63
2022-12-11T15:16:41.672Z,100766.84
2022-12-11T15:21:46.053Z,100765.31
2022-12-11T15:26:49.675Z,100767.06
2022-12-11T15:32:01.454Z,100752.38
2022-12-11T15:37:05.578Z,100754.38
2022-12-11T15:42:08.352Z,100758.56
2022-12-11T15:47:15.379Z,100760.66
2022-12-11T15:52:19.485Z,100752.66
2022-12-11T15:57:24.969Z,100742.72
2022-12-11T16:02:28.050Z,100749.41
2022-12-11T16:07:33.286Z,100744.94
2022-12-11T16:12:36.062Z,100744.38
2022-12-11T16:17:38.900Z,100749.78
2022-12-11T16:22:43.111Z,100757.91
2022-12-11T16:27:46.260Z,100758.69
2022-12-11T16:32:49.120Z,100763.56
2022-12-11T16:37:54.738Z,100754.13
2022-12-11T16:42:58.526Z,100753.72
2022-12-11T16:48:03.916Z,100755.53
2022-12-11T16:53:08.018Z,100761.72
2022-12-11T16:58:15.874Z,100761.69
2022-12-11T17:03:19.419Z,100757.53
2022-12-11T17:08:24.278Z,100754.59
2022-12-11T17:13:29.566Z,100755.16
2022-12-11T17:18:37.230Z,100761.34
2022-12-11T17:23:41.579Z,100762.56
2022-12-11T17:28:45.947Z,100764.94
2022-12-11T17:33:49.626Z,100770.72
2022-12-11T17:38:54.920Z,100766.44
2022-12-11T17:43:57.763Z,100762.50
2022-12-11T17:49:02.774Z,100756.66
2022-12-11T17:54:06.978Z,100757.50
2022-12-11T17:59:09.822Z,100754.69
2022-12-11T18:04:12.797Z,100760.84
2022-12-11T18:09:17.031Z,100758.94
2022-12-11T18:14:19.824Z,100758.66
2022-12-11T18:19:23.276Z,100764.56
2022-12-11T18:24:31.699Z,100765.41
2022-12-11T18:29:35.688Z,100755.41
2022-12-11T18:34:38.445Z,100764.28
2022-12-11T18:39:43.028Z,100779.66
2022-12-11T18:44:46.458Z,100775.44
2022-12-11T18:49:49.337Z,100773.81
2022-12-11T18:54:53.722Z,100769.28
2022-12-11T18:59:56.574Z,100773.09
2022-12-11T19:04:59.725Z,100776.16
2022-12-11T19:10:04.059Z,100778.25
2022-12-11T19:15:07.895Z,100772.16
2022-12-11T19:20:40.391Z,100778.47
2022-12-11T19:25:43.244Z,100779.69
2022-12-11T19:30:47.455Z,100786.88
2022-12-11T19:35:50.375Z,100788.66
2022-12-11T19:40:54.797Z,100788.19
2022-12-11T19:45:57.635Z,100790.97
2022-12-11T19:51:05.357Z,100784.38
2022-12-11T19:56:29.362Z,100779.84
2022-12-11T20:07:30.650Z,100773.94
2022-12-11T20:12:45.483Z,100787.72
2022-12-11T20:17:57.918Z,100786.78
2022-12-11T20:23:02.935Z,100791.28
2022-12-11T20:34:47.846Z,100783.28
2022-12-11T20:39:54.072Z,100783.56
2022-12-11T20:44:59.861Z,100791.44
2022-12-11T20:50:24.003Z,100796.94
2022-12-11T20:55:26.970Z,100781.28
2022-12-11T21:00:41.893Z,100779.31
2022-12-11T21:05:48.029Z,100776.50
2022-12-11T21:10:53.673Z,100779.88
2022-12-11T21:16:06.370Z,100781.75
2022-12-11T21:21:21.133Z,100786.69
2022-12-11T21:26:24.182Z,100795.28
2022-12-11T21:31:30.993Z,100794.91
2022-12-11T21:36:34.017Z,100792.16
2022-12-11T21:41:52.997Z,100783.31
2022-12-11T21:52:27.341Z,100792.16
2022-12-11T21:57:34.300Z,100796.00
2022-12-11T22:02:41.344Z,100801.13
2022-12-11T22:07:44.438Z,100797.13
2022-12-11T22:12:47.257Z,100799.34
2022-12-11T22:17:52.837Z,100804.19
2022-12-11T22:22:58.828Z,100810.19
2022-12-11T22:28:02.187Z,100802.16
2022-12-11T22:33:06.511Z,100801.91
2022-12-11T22:38:09.349Z,100789.03
2022-12-11T22:43:13.058Z,100796.13
2022-12-11T22:48:17.301Z,100798.34
2022-12-11T22:53:20.309Z,100791.84
2022-12-11T22:58:23.111Z,100791.22
2022-12-11T23:03:27.417Z,100796.66
2022-12-11T23:08:30.337Z,100792.66
2022-12-11T23:13:33.173Z,100790.97
2022-12-11T23:18:37.378Z,100792.94
2022-12-11T23:23:40.821Z,100793.97
2022-12-11T23:28:43.668Z,100790.88
2022-12-11T23:33:47.941Z,100795.44
2022-12-11T23:38:54.561Z,100797.66
2022-12-11T23:43:57.964Z,100801.84
2022-12-11T23:49:02.063Z,100802.75
2022-12-11T23:54:04.908Z,100800.06
2022-12-11T23:59:07.710Z,100814.31
